Leadville, CO

7:51 PM MDT on September 22, 2017 (GMT -0600)
Lake County | | Change Station

Elev 9928 ft 39.22 °N, 106.32 °W | Updated 58 minutes ago

Overcast
Overcast
50 °F
Feels Like 50 °F
N
15
Wind Variable Wind from SSE

Today
High -- | Low -- °F
--% Chance of Precip.
Yesterday
High -- | Low -- °F
Precip. -- in
Pressure 29.63 in
Visibility 10.0 miles
Clouds Few 5000 ft
Mostly Cloudy 9000 ft
Overcast 11000 ft
Dew Point 29 °F
Humidity 44%
Rainfall 0.00 in
Snow Depth Not available.
6:53 AM 7:01 PM
Waxing Crescent, 9% visible
METAR KLXV 230053Z AUTO 16013KT 10SM -RA FEW050 BKN090 OVC110 10/M02 A3007 RMK AO2 PK WND 17028/0022 RAB21 SLP033 P0000 T01001017
Pressure 29.63 in
Visibility 10.0 miles
Clouds Few 5000 ft
Mostly Cloudy 9000 ft
Overcast 11000 ft
Dew Point 29 °F
Humidity 44%
Rainfall 0.00 in
Snow Depth Not available.
6:53 AM 7:01 PM
Waxing Crescent, 9% visible
METAR KLXV 230053Z AUTO 16013KT 10SM -RA FEW050 BKN090 OVC110 10/M02 A3007 RMK AO2 PK WND 17028/0022 RAB21 SLP033 P0000 T01001017

Get Severe Weather Alerts

Thanks for signing up!

Be on the lookout for a verification email in your inbox.

You'll start receiving the daily forecast at 6 AM.

×

10-Day Weather Forecast

Almanac

Astronomy

Sep. 22, 2017 Rise Set
Actual Time
Civil Twilight
Nautical Twilight
Astronomical Twilight
Moon
Length of Visible Light
Length of Day
Tomorrow will be .
, % of the Moon is Illuminated

Today's Extremes

State Highs State Lows

Community

WunderPhotos

Category 6

Welcome to Category 6. This is the collective home for Weather Underground's featured writeups by Dr. Jeff Masters (right), Bob Henson (left), Chris Burt, and other regular contributors.

Nearby

Air Quality

  Air Quality AQ Index Pollutant
Not available.

Snow Depth

Station Depth Elevation

Earthquake Activity

City Distance Mag. Time & Date
Minimum magnitude displayed is 2.5.

Coastal Water Temperatures

Place Temperature

Stations

Nearby Weather Stations

Station Location Temp. Windchill Dew Point Humidity Wind Precip. Elev Updated Type
                   

Watches & Warnings

There are currently no watches in effect.